sensor_id;sensor_type;location;lat;lon;timestamp;pressure;altitude;pressure_sealevel;temperature;humidity
64841;BME280;51307;52.162;7.560;2024-02-21T00:00:45;101670.81;;;8.45;81.88
64841;BME280;51307;52.162;7.560;2024-02-21T00:03:11;101672.75;;;8.54;81.96
64841;BME280;51307;52.162;7.560;2024-02-21T00:05:36;101661.38;;;8.52;81.91
64841;BME280;51307;52.162;7.560;2024-02-21T00:08:02;101655.44;;;8.48;82.55
64841;BME280;51307;52.162;7.560;2024-02-21T00:10:28;101647.00;;;8.20;83.15
64841;BME280;51307;52.162;7.560;2024-02-21T00:12:54;101647.47;;;8.37;82.45
64841;BME280;51307;52.162;7.560;2024-02-21T00:15:19;101650.91;;;8.60;81.58
64841;BME280;51307;52.162;7.560;2024-02-21T00:17:45;101635.78;;;8.49;82.26
64841;BME280;51307;52.162;7.560;2024-02-21T00:20:11;101637.72;;;8.47;82.47
64841;BME280;51307;52.162;7.560;2024-02-21T00:22:36;101631.34;;;8.38;82.93
64841;BME280;51307;52.162;7.560;2024-02-21T00:25:02;101630.69;;;8.46;82.44
64841;BME280;51307;52.162;7.560;2024-02-21T00:27:28;101636.16;;;8.45;82.47
64841;BME280;51307;52.162;7.560;2024-02-21T00:29:53;101623.34;;;8.38;82.73
64841;BME280;51307;52.162;7.560;2024-02-21T00:32:19;101623.28;;;8.50;82.58
64841;BME280;51307;52.162;7.560;2024-02-21T00:34:44;101623.91;;;8.42;82.79
64841;BME280;51307;52.162;7.560;2024-02-21T00:37:10;101621.25;;;8.42;82.56
64841;BME280;51307;52.162;7.560;2024-02-21T00:39:35;101620.16;;;8.45;82.95
64841;BME280;51307;52.162;7.560;2024-02-21T00:42:02;101616.03;;;8.52;82.12
64841;BME280;51307;52.162;7.560;2024-02-21T00:44:28;101615.28;;;8.50;82.32
64841;BME280;51307;52.162;7.560;2024-02-21T00:46:53;101631.03;;;8.53;82.71
64841;BME280;51307;52.162;7.560;2024-02-21T00:49:19;101619.53;;;8.52;82.33
64841;BME280;51307;52.162;7.560;2024-02-21T00:51:45;101617.97;;;8.50;82.49
64841;BME280;51307;52.162;7.560;2024-02-21T00:54:10;101618.56;;;8.53;82.47
64841;BME280;51307;52.162;7.560;2024-02-21T00:56:35;101620.88;;;8.47;82.27
64841;BME280;51307;52.162;7.560;2024-02-21T00:59:01;101620.38;;;8.53;82.09
64841;BME280;51307;52.162;7.560;2024-02-21T01:01:26;101617.06;;;8.61;82.05
64841;BME280;51307;52.162;7.560;2024-02-21T01:03:52;101615.81;;;8.44;82.83
64841;BME280;51307;52.162;7.560;2024-02-21T01:06:21;101608.94;;;8.30;82.83
64841;BME280;51307;52.162;7.560;2024-02-21T01:08:47;101607.97;;;8.31;82.94
64841;BME280;51307;52.162;7.560;2024-02-21T01:11:16;101605.25;;;8.42;82.80
64841;BME280;51307;52.162;7.560;2024-02-21T01:13:41;101608.94;;;8.62;82.24
64841;BME280;51307;52.162;7.560;2024-02-21T01:16:07;101601.28;;;8.36;82.68
64841;BME280;51307;52.162;7.560;2024-02-21T01:18:37;101597.03;;;8.34;82.77
64841;BME280;51307;52.162;7.560;2024-02-21T01:21:04;101595.38;;;8.54;82.14
64841;BME280;51307;52.162;7.560;2024-02-21T01:23:33;101586.41;;;8.55;82.11
64841;BME280;51307;52.162;7.560;2024-02-21T01:25:59;101585.81;;;8.51;82.48
64841;BME280;51307;52.162;7.560;2024-02-21T01:28:24;101585.81;;;8.51;82.71
64841;BME280;51307;52.162;7.560;2024-02-21T01:30:50;101585.91;;;8.29;83.24
64841;BME280;51307;52.162;7.560;2024-02-21T01:33:15;101583.88;;;8.21;83.52
64841;BME280;51307;52.162;7.560;2024-02-21T01:35:41;101586.41;;;8.55;82.98
64841;BME280;51307;52.162;7.560;2024-02-21T01:38:06;101572.81;;;8.58;82.49
64841;BME280;51307;52.162;7.560;2024-02-21T01:40:32;101567.53;;;8.47;82.55
64841;BME280;51307;52.162;7.560;2024-02-21T01:42:57;101561.25;;;8.48;82.87
64841;BME280;51307;52.162;7.560;2024-02-21T01:45:23;101558.25;;;8.41;83.23
64841;BME280;51307;52.162;7.560;2024-02-21T01:47:50;101547.66;;;8.51;82.33
64841;BME280;51307;52.162;7.560;2024-02-21T01:50:16;101543.06;;;8.41;83.11
64841;BME280;51307;52.162;7.560;2024-02-21T01:52:46;101539.19;;;8.46;83.19
64841;BME280;51307;52.162;7.560;2024-02-21T01:55:14;101532.47;;;8.30;83.43
64841;BME280;51307;52.162;7.560;2024-02-21T01:57:42;101532.88;;;8.47;83.09
64841;BME280;51307;52.162;7.560;2024-02-21T02:00:14;101534.00;;;8.65;81.88
64841;BME280;51307;52.162;7.560;2024-02-21T02:02:42;101538.13;;;8.58;82.26
64841;BME280;51307;52.162;7.560;2024-02-21T02:05:07;101524.31;;;8.64;82.14
64841;BME280;51307;52.162;7.560;2024-02-21T02:07:33;101527.56;;;8.68;81.79
64841;BME280;51307;52.162;7.560;2024-02-21T02:09:59;101512.38;;;8.68;81.92
64841;BME280;51307;52.162;7.560;2024-02-21T02:12:24;101496.50;;;8.46;82.61
64841;BME280;51307;52.162;7.560;2024-02-21T02:15:00;101508.94;;;8.56;82.27
64841;BME280;51307;52.162;7.560;2024-02-21T02:17:26;101504.19;;;8.60;82.26
64841;BME280;51307;52.162;7.560;2024-02-21T02:19:51;101492.97;;;8.66;81.93
64841;BME280;51307;52.162;7.560;2024-02-21T02:22:22;101485.06;;;8.55;82.30
64841;BME280;51307;52.162;7.560;2024-02-21T02:24:49;101480.88;;;8.62;81.93
64841;BME280;51307;52.162;7.560;2024-02-21T02:27:14;101465.16;;;8.59;81.99
64841;BME280;51307;52.162;7.560;2024-02-21T02:29:40;101461.25;;;8.63;81.92
64841;BME280;51307;52.162;7.560;2024-02-21T02:32:06;101461.97;;;8.65;81.64
64841;BME280;51307;52.162;7.560;2024-02-21T02:34:31;101468.53;;;8.61;81.93
64841;BME280;51307;52.162;7.560;2024-02-21T02:36:57;101472.47;;;8.57;81.92
64841;BME280;51307;52.162;7.560;2024-02-21T02:39:22;101465.22;;;8.48;82.13
64841;BME280;51307;52.162;7.560;2024-02-21T02:41:48;101456.44;;;8.57;82.06
64841;BME280;51307;52.162;7.560;2024-02-21T02:44:13;101452.41;;;8.41;82.24
64841;BME280;51307;52.162;7.560;2024-02-21T02:46:42;101468.34;;;8.32;82.57
64841;BME280;51307;52.162;7.560;2024-02-21T02:49:07;101456.31;;;8.37;82.86
64841;BME280;51307;52.162;7.560;2024-02-21T02:51:33;101457.34;;;8.46;82.50
64841;BME280;51307;52.162;7.560;2024-02-21T02:53:59;101450.06;;;8.48;82.36
64841;BME280;51307;52.162;7.560;2024-02-21T02:56:24;101444.59;;;8.50;82.87
64841;BME280;51307;52.162;7.560;2024-02-21T02:58:50;101448.63;;;8.65;81.70
64841;BME280;51307;52.162;7.560;2024-02-21T03:01:15;101461.50;;;8.60;82.15
64841;BME280;51307;52.162;7.560;2024-02-21T03:03:41;101463.41;;;8.69;81.80
64841;BME280;51307;52.162;7.560;2024-02-21T03:06:06;101459.94;;;8.57;81.81
64841;BME280;51307;52.162;7.560;2024-02-21T03:08:32;101461.47;;;8.50;82.62
64841;BME280;51307;52.162;7.560;2024-02-21T03:11:00;101461.94;;;8.23;83.63
64841;BME280;51307;52.162;7.560;2024-02-21T03:13:26;101469.25;;;8.42;82.96
64841;BME280;51307;52.162;7.560;2024-02-21T03:15:51;101467.16;;;8.46;82.94
64841;BME280;51307;52.162;7.560;2024-02-21T03:18:17;101469.56;;;8.49;83.10
64841;BME280;51307;52.162;7.560;2024-02-21T03:20:42;101467.72;;;8.39;83.06
64841;BME280;51307;52.162;7.560;2024-02-21T03:23:08;101470.59;;;8.36;82.69
64841;BME280;51307;52.162;7.560;2024-02-21T03:25:33;101470.44;;;8.49;82.67
64841;BME280;51307;52.162;7.560;2024-02-21T03:27:59;101472.78;;;8.42;82.92
64841;BME280;51307;52.162;7.560;2024-02-21T03:30:24;101465.94;;;8.50;82.57
64841;BME280;51307;52.162;7.560;2024-02-21T03:32:50;101467.16;;;8.24;83.38
64841;BME280;51307;52.162;7.560;2024-02-21T03:35:16;101469.91;;;8.34;83.25
64841;BME280;51307;52.162;7.560;2024-02-21T03:37:41;101463.06;;;8.41;82.87
64841;BME280;51307;52.162;7.560;2024-02-21T03:40:08;101463.97;;;8.31;83.18
64841;BME280;51307;52.162;7.560;2024-02-21T03:42:34;101446.38;;;8.39;83.04
64841;BME280;51307;52.162;7.560;2024-02-21T03:44:59;101446.28;;;8.51;82.32
64841;BME280;51307;52.162;7.560;2024-02-21T03:47:25;101466.19;;;8.25;83.32
64841;BME280;51307;52.162;7.560;2024-02-21T03:49:50;101449.88;;;8.40;82.81
64841;BME280;51307;52.162;7.560;2024-02-21T03:52:16;101443.16;;;8.46;82.72
64841;BME280;51307;52.162;7.560;2024-02-21T03:54:42;101451.91;;;8.48;82.73
64841;BME280;51307;52.162;7.560;2024-02-21T03:57:08;101449.28;;;8.36;83.32
64841;BME280;51307;52.162;7.560;2024-02-21T03:59:33;101447.53;;;8.25;83.41
64841;BME280;51307;52.162;7.560;2024-02-21T04:01:59;101455.38;;;8.27;83.02
64841;BME280;51307;52.162;7.560;2024-02-21T04:04:25;101454.63;;;8.36;83.13
64841;BME280;51307;52.162;7.560;2024-02-21T04:06:50;101447.25;;;8.29;83.68
64841;BME280;51307;52.162;7.560;2024-02-21T04:09:16;101445.69;;;8.47;82.89
64841;BME280;51307;52.162;7.560;2024-02-21T04:11:42;101452.97;;;8.24;83.30
64841;BME280;51307;52.162;7.560;2024-02-21T04:14:08;101450.72;;;8.40;82.96
64841;BME280;51307;52.162;7.560;2024-02-21T04:16:34;101461.38;;;8.40;83.20
64841;BME280;51307;52.162;7.560;2024-02-21T04:19:00;101463.25;;;8.50;82.78
64841;BME280;51307;52.162;7.560;2024-02-21T04:21:26;101454.44;;;8.49;82.72
64841;BME280;51307;52.162;7.560;2024-02-21T04:23:51;101449.16;;;8.59;82.50
64841;BME280;51307;52.162;7.560;2024-02-21T04:26:17;101439.84;;;8.32;83.67
64841;BME280;51307;52.162;7.560;2024-02-21T04:28:45;101435.13;;;8.57;82.62
64841;BME280;51307;52.162;7.560;2024-02-21T04:31:10;101437.19;;;8.32;83.54
64841;BME280;51307;52.162;7.560;2024-02-21T04:33:36;101425.22;;;8.48;83.21
64841;BME280;51307;52.162;7.560;2024-02-21T04:36:01;101430.75;;;8.35;83.76
64841;BME280;51307;52.162;7.560;2024-02-21T04:38:27;101427.44;;;8.42;83.67
64841;BME280;51307;52.162;7.560;2024-02-21T04:40:55;101432.00;;;8.52;83.17
64841;BME280;51307;52.162;7.560;2024-02-21T04:43:24;101434.56;;;8.42;83.43
64841;BME280;51307;52.162;7.560;2024-02-21T04:45:49;101431.38;;;8.27;83.96
64841;BME280;51307;52.162;7.560;2024-02-21T04:48:15;101425.28;;;8.36;83.96
64841;BME280;51307;52.162;7.560;2024-02-21T04:50:41;101413.38;;;8.40;83.56
64841;BME280;51307;52.162;7.560;2024-02-21T04:53:06;101403.72;;;8.39;83.62
64841;BME280;51307;52.162;7.560;2024-02-21T04:55:32;101402.47;;;8.44;83.73
64841;BME280;51307;52.162;7.560;2024-02-21T04:57:57;101407.22;;;8.40;83.64
64841;BME280;51307;52.162;7.560;2024-02-21T05:00:23;101397.47;;;8.29;83.93
64841;BME280;51307;52.162;7.560;2024-02-21T05:02:48;101390.63;;;8.36;83.73
64841;BME280;51307;52.162;7.560;2024-02-21T05:05:14;101393.88;;;8.19;84.06
64841;BME280;51307;52.162;7.560;2024-02-21T05:07:40;101385.28;;;8.36;83.45
64841;BME280;51307;52.162;7.560;2024-02-21T05:10:07;101379.50;;;8.31;83.67
64841;BME280;51307;52.162;7.560;2024-02-21T05:12:33;101376.31;;;8.16;84.66
64841;BME280;51307;52.162;7.560;2024-02-21T05:14:58;101384.97;;;8.30;83.88
64841;BME280;51307;52.162;7.560;2024-02-21T05:17:24;101383.72;;;8.34;83.33
64841;BME280;51307;52.162;7.560;2024-02-21T05:19:49;101381.56;;;7.85;84.95
64841;BME280;51307;52.162;7.560;2024-02-21T05:22:15;101375.41;;;8.27;83.62
64841;BME280;51307;52.162;7.560;2024-02-21T05:24:40;101371.81;;;8.38;83.59
64841;BME280;51307;52.162;7.560;2024-02-21T05:27:06;101377.69;;;8.32;83.35
64841;BME280;51307;52.162;7.560;2024-02-21T05:29:33;101372.72;;;8.48;82.89
64841;BME280;51307;52.162;7.560;2024-02-21T05:31:58;101367.06;;;8.20;83.77
64841;BME280;51307;52.162;7.560;2024-02-21T05:34:24;101362.88;;;8.49;82.54
64841;BME280;51307;52.162;7.560;2024-02-21T05:36:50;101370.31;;;8.45;82.58
64841;BME280;51307;52.162;7.560;2024-02-21T05:39:16;101361.38;;;8.25;83.63
64841;BME280;51307;52.162;7.560;2024-02-21T05:41:42;101363.75;;;8.49;82.03
64841;BME280;51307;52.162;7.560;2024-02-21T05:44:08;101360.91;;;8.41;82.22
64841;BME280;51307;52.162;7.560;2024-02-21T05:46:34;101361.94;;;8.29;82.73
64841;BME280;51307;52.162;7.560;2024-02-21T05:48:59;101355.03;;;8.47;82.17
64841;BME280;51307;52.162;7.560;2024-02-21T05:51:25;101370.56;;;8.42;81.92
64841;BME280;51307;52.162;7.560;2024-02-21T05:53:50;101368.03;;;8.40;82.17
64841;BME280;51307;52.162;7.560;2024-02-21T05:56:15;101371.13;;;8.36;82.01
64841;BME280;51307;52.162;7.560;2024-02-21T05:58:43;101376.78;;;8.42;81.77
64841;BME280;51307;52.162;7.560;2024-02-21T06:01:09;101373.66;;;8.37;81.88
64841;BME280;51307;52.162;7.560;2024-02-21T06:03:35;101373.81;;;8.46;81.21
64841;BME280;51307;52.162;7.560;2024-02-21T06:06:02;101359.84;;;8.53;80.93
64841;BME280;51307;52.162;7.560;2024-02-21T06:08:27;101358.56;;;8.48;81.31
64841;BME280;51307;52.162;7.560;2024-02-21T06:10:53;101346.22;;;8.56;80.82
64841;BME280;51307;52.162;7.560;2024-02-21T06:13:23;101341.47;;;8.60;80.17
64841;BME280;51307;52.162;7.560;2024-02-21T06:15:48;101335.25;;;8.50;80.85
64841;BME280;51307;52.162;7.560;2024-02-21T06:18:17;101341.31;;;8.52;81.10
64841;BME280;51307;52.162;7.560;2024-02-21T06:20:43;101344.22;;;8.49;81.08
64841;BME280;51307;52.162;7.560;2024-02-21T06:23:09;101337.44;;;8.66;80.49
64841;BME280;51307;52.162;7.560;2024-02-21T06:25:35;101335.25;;;8.50;81.00
64841;BME280;51307;52.162;7.560;2024-02-21T06:28:00;101337.09;;;8.28;81.71
64841;BME280;51307;52.162;7.560;2024-02-21T06:30:26;101330.53;;;8.32;81.48
64841;BME280;51307;52.162;7.560;2024-02-21T06:32:52;101328.78;;;8.42;81.26
64841;BME280;51307;52.162;7.560;2024-02-21T06:35:17;101321.47;;;8.45;81.06
64841;BME280;51307;52.162;7.560;2024-02-21T06:37:43;101311.41;;;8.58;80.57
64841;BME280;51307;52.162;7.560;2024-02-21T06:40:10;101308.00;;;8.46;80.71
64841;BME280;51307;52.162;7.560;2024-02-21T06:42:36;101301.25;;;8.42;81.06
64841;BME280;51307;52.162;7.560;2024-02-21T06:45:01;101306.78;;;8.50;80.67
64841;BME280;51307;52.162;7.560;2024-02-21T06:47:27;101299.09;;;8.57;80.80
64841;BME280;51307;52.162;7.560;2024-02-21T06:49:52;101300.88;;;8.56;80.45
64841;BME280;51307;52.162;7.560;2024-02-21T06:52:18;101286.63;;;8.36;80.91
64841;BME280;51307;52.162;7.560;2024-02-21T06:54:48;101291.19;;;8.55;80.28
64841;BME280;51307;52.162;7.560;2024-02-21T06:57:14;101291.06;;;8.57;80.18
64841;BME280;51307;52.162;7.560;2024-02-21T06:59:41;101305.31;;;8.46;80.55
64841;BME280;51307;52.162;7.560;2024-02-21T07:02:06;101306.22;;;8.56;80.65
64841;BME280;51307;52.162;7.560;2024-02-21T07:04:33;101315.81;;;8.38;81.05
64841;BME280;51307;52.162;7.560;2024-02-21T07:06:58;101310.16;;;8.31;80.86
64841;BME280;51307;52.162;7.560;2024-02-21T07:09:24;101312.94;;;8.51;80.44
64841;BME280;51307;52.162;7.560;2024-02-21T07:11:49;101309.34;;;8.62;79.68
64841;BME280;51307;52.162;7.560;2024-02-21T07:14:15;101317.06;;;8.65;79.71
64841;BME280;51307;52.162;7.560;2024-02-21T07:16:41;101312.94;;;8.51;79.60
64841;BME280;51307;52.162;7.560;2024-02-21T07:19:07;101311.69;;;8.55;79.45
64841;BME280;51307;52.162;7.560;2024-02-21T07:21:32;101316.56;;;8.50;79.63
64841;BME280;51307;52.162;7.560;2024-02-21T07:23:58;101317.69;;;8.47;80.04
64841;BME280;51307;52.162;7.560;2024-02-21T07:26:23;101317.66;;;8.37;80.08
64841;BME280;51307;52.162;7.560;2024-02-21T07:28:49;101320.84;;;8.62;79.43
64841;BME280;51307;52.162;7.560;2024-02-21T07:31:15;101318.09;;;8.73;79.10
64841;BME280;51307;52.162;7.560;2024-02-21T07:33:40;101315.81;;;8.69;79.21
64841;BME280;51307;52.162;7.560;2024-02-21T07:36:07;101303.84;;;8.63;78.95
64841;BME280;51307;52.162;7.560;2024-02-21T07:38:34;101312.34;;;8.47;79.32
64841;BME280;51307;52.162;7.560;2024-02-21T07:40:59;101304.41;;;8.57;78.53
64841;BME280;51307;52.162;7.560;2024-02-21T07:43:25;101308.91;;;8.66;78.47
64841;BME280;51307;52.162;7.560;2024-02-21T07:45:52;101307.09;;;8.67;78.73
64841;BME280;51307;52.162;7.560;2024-02-21T07:48:18;101309.47;;;8.60;78.79
64841;BME280;51307;52.162;7.560;2024-02-21T07:50:44;101298.25;;;8.35;79.35
64841;BME280;51307;52.162;7.560;2024-02-21T07:53:10;101302.22;;;8.72;78.58
64841;BME280;51307;52.162;7.560;2024-02-21T07:55:35;101294.03;;;8.64;78.50
64841;BME280;51307;52.162;7.560;2024-02-21T07:58:01;101296.78;;;8.42;79.27
64841;BME280;51307;52.162;7.560;2024-02-21T08:00:26;101297.00;;;8.70;78.20
64841;BME280;51307;52.162;7.560;2024-02-21T08:02:52;101298.13;;;8.68;78.46
64841;BME280;51307;52.162;7.560;2024-02-21T08:05:17;101288.00;;;8.62;78.34
64841;BME280;51307;52.162;7.560;2024-02-21T08:07:43;101289.25;;;8.57;78.12
64841;BME280;51307;52.162;7.560;2024-02-21T08:10:09;101287.53;;;8.56;78.41
64841;BME280;51307;52.162;7.560;2024-02-21T08:12:35;101283.78;;;8.69;77.97
64841;BME280;51307;52.162;7.560;2024-02-21T08:15:01;101283.94;;;8.67;78.02
64841;BME280;51307;52.162;7.560;2024-02-21T08:17:28;101279.19;;;8.81;78.06
64841;BME280;51307;52.162;7.560;2024-02-21T08:19:54;101274.53;;;8.73;77.97
64841;BME280;51307;52.162;7.560;2024-02-21T08:22:19;101268.16;;;8.85;77.33
64841;BME280;51307;52.162;7.560;2024-02-21T08:24:45;101264.78;;;8.93;77.14
64841;BME280;51307;52.162;7.560;2024-02-21T08:27:10;101258.31;;;8.86;77.56
64841;BME280;51307;52.162;7.560;2024-02-21T08:29:36;101249.34;;;8.97;77.07
64841;BME280;51307;52.162;7.560;2024-02-21T08:32:01;101249.84;;;8.81;76.88
64841;BME280;51307;52.162;7.560;2024-02-21T08:34:27;101243.28;;;8.95;76.95
64841;BME280;51307;52.162;7.560;2024-02-21T08:36:55;101248.22;;;8.89;77.02
64841;BME280;51307;52.162;7.560;2024-02-21T08:39:20;101244.84;;;8.97;76.73
64841;BME280;51307;52.162;7.560;2024-02-21T08:41:46;101240.91;;;9.01;76.76
64841;BME280;51307;52.162;7.560;2024-02-21T08:44:12;101238.25;;;9.01;76.49
64841;BME280;51307;52.162;7.560;2024-02-21T08:46:37;101231.88;;;8.83;76.91
64841;BME280;51307;52.162;7.560;2024-02-21T08:49:06;101224.78;;;9.13;76.39
64841;BME280;51307;52.162;7.560;2024-02-21T08:51:31;101241.84;;;8.81;76.62
64841;BME280;51307;52.162;7.560;2024-02-21T08:53:58;101232.78;;;9.03;76.03
64841;BME280;51307;52.162;7.560;2024-02-21T08:56:23;101231.09;;;9.12;76.00
64841;BME280;51307;52.162;7.560;2024-02-21T08:58:49;101228.00;;;9.06;75.87
64841;BME280;51307;52.162;7.560;2024-02-21T09:01:15;101221.38;;;9.01;75.55
64841;BME280;51307;52.162;7.560;2024-02-21T09:03:41;101226.31;;;9.25;75.72
64841;BME280;51307;52.162;7.560;2024-02-21T09:06:07;101220.97;;;9.25;75.82
64841;BME280;51307;52.162;7.560;2024-02-21T09:08:33;101220.25;;;9.13;75.92
64841;BME280;51307;52.162;7.560;2024-02-21T09:11:02;101220.41;;;9.31;75.73
64841;BME280;51307;52.162;7.560;2024-02-21T09:13:28;101220.28;;;9.23;75.42
64841;BME280;51307;52.162;7.560;2024-02-21T09:15:54;101212.97;;;9.15;74.91
64841;BME280;51307;52.162;7.560;2024-02-21T09:18:19;101208.88;;;9.31;75.19
64841;BME280;51307;52.162;7.560;2024-02-21T09:20:45;101202.41;;;9.33;75.44
64841;BME280;51307;52.162;7.560;2024-02-21T09:23:12;101196.66;;;9.28;75.15
64841;BME280;51307;52.162;7.560;2024-02-21T09:25:37;101196.38;;;9.31;74.37
64841;BME280;51307;52.162;7.560;2024-02-21T09:28:03;101197.94;;;9.34;74.57
64841;BME280;51307;52.162;7.560;2024-02-21T09:30:29;101197.03;;;9.43;74.75
64841;BME280;51307;52.162;7.560;2024-02-21T09:32:54;101194.41;;;9.23;74.33
64841;BME280;51307;52.162;7.560;2024-02-21T09:35:20;101184.69;;;9.42;74.05
64841;BME280;51307;52.162;7.560;2024-02-21T09:37:48;101180.59;;;9.48;74.88
64841;BME280;51307;52.162;7.560;2024-02-21T09:40:17;101175.72;;;9.33;74.70
64841;BME280;51307;52.162;7.560;2024-02-21T09:42:43;101177.41;;;9.34;74.04
64841;BME280;51307;52.162;7.560;2024-02-21T09:45:23;101162.59;;;9.50;74.23
64841;BME280;51307;52.162;7.560;2024-02-21T09:48:18;101166.13;;;9.50;74.10
64841;BME280;51307;52.162;7.560;2024-02-21T09:50:45;101164.16;;;9.42;74.08
64841;BME280;51307;52.162;7.560;2024-02-21T09:53:12;101172.63;;;9.28;73.89
64841;BME280;51307;52.162;7.560;2024-02-21T09:55:43;101170.38;;;9.33;73.84
64841;BME280;51307;52.162;7.560;2024-02-21T09:58:09;101174.59;;;9.26;73.98
64841;BME280;51307;52.162;7.560;2024-02-21T10:00:36;101165.31;;;9.30;73.86
64841;BME280;51307;52.162;7.560;2024-02-21T10:03:02;101182.91;;;9.23;73.73
64841;BME280;51307;52.162;7.560;2024-02-21T10:05:33;101158.00;;;9.22;73.96
64841;BME280;51307;52.162;7.560;2024-02-21T10:07:59;101159.69;;;9.33;73.82
64841;BME280;51307;52.162;7.560;2024-02-21T10:10:24;101162.22;;;9.35;73.72
64841;BME280;51307;52.162;7.560;2024-02-21T10:12:52;101161.38;;;9.34;73.81
64841;BME280;51307;52.162;7.560;2024-02-21T10:15:21;101159.38;;;9.36;73.02
64841;BME280;51307;52.162;7.560;2024-02-21T10:18:00;101159.53;;;9.35;73.26
64841;BME280;51307;52.162;7.560;2024-02-21T10:20:27;101153.78;;;9.39;73.18
64841;BME280;51307;52.162;7.560;2024-02-21T10:23:03;101156.59;;;9.38;72.51
64841;BME280;51307;52.162;7.560;2024-02-21T10:25:36;101149.00;;;9.33;72.03
64841;BME280;51307;52.162;7.560;2024-02-21T10:28:06;101139.72;;;9.47;72.50
64841;BME280;51307;52.162;7.560;2024-02-21T10:30:32;101138.69;;;9.58;72.23
64841;BME280;51307;52.162;7.560;2024-02-21T10:32:58;101131.81;;;9.46;72.33
64841;BME280;51307;52.162;7.560;2024-02-21T10:35:31;101128.88;;;9.39;72.66
64841;BME280;51307;52.162;7.560;2024-02-21T10:37:58;101126.47;;;9.46;72.17
64841;BME280;51307;52.162;7.560;2024-02-21T10:40:28;101124.47;;;9.57;71.70
64841;BME280;51307;52.162;7.560;2024-02-21T10:42:59;101119.69;;;9.61;71.55
64841;BME280;51307;52.162;7.560;2024-02-21T10:45:30;101108.06;;;9.42;71.58
64841;BME280;51307;52.162;7.560;2024-02-21T10:48:08;101099.88;;;9.54;71.31
64841;BME280;51307;52.162;7.560;2024-02-21T10:51:03;101095.91;;;9.68;
64841;BME280;51307;52.162;7.560;2024-02-21T10:53:44;101089.44;;;9.70;71.01
64841;BME280;51307;52.162;7.560;2024-02-21T10:58:50;101078.34;;;9.65;69.76
64841;BME280;51307;52.162;7.560;2024-02-21T11:01:18;101076.28;;;9.49;70.44
64841;BME280;51307;52.162;7.560;2024-02-21T11:03:49;101083.06;;;9.43;70.67
64841;BME280;51307;52.162;7.560;2024-02-21T11:06:17;101070.78;;;9.51;70.81
64841;BME280;51307;52.162;7.560;2024-02-21T11:08:43;101069.41;;;9.47;71.03
64841;BME280;51307;52.162;7.560;2024-02-21T11:11:12;101053.34;;;9.56;71.25
64841;BME280;51307;52.162;7.560;2024-02-21T11:13:42;101042.13;;;9.53;71.14
64841;BME280;51307;52.162;7.560;2024-02-21T11:16:21;101040.03;;;9.47;71.40
64841;BME280;51307;52.162;7.560;2024-02-21T11:18:47;101031.13;;;9.56;71.34
64841;BME280;51307;52.162;7.560;2024-02-21T11:21:13;101035.91;;;9.62;71.78
64841;BME280;51307;52.162;7.560;2024-02-21T11:23:38;101026.69;;;9.47;71.85
64841;BME280;51307;52.162;7.560;2024-02-21T11:26:08;101028.88;;;9.61;71.76
64841;BME280;51307;52.162;7.560;2024-02-21T11:28:34;101020.50;;;9.46;71.38
64841;BME280;51307;52.162;7.560;2024-02-21T11:31:12;101017.06;;;9.54;71.40
64841;BME280;51307;52.162;7.560;2024-02-21T11:33:42;101012.09;;;9.41;71.30
64841;BME280;51307;52.162;7.560;2024-02-21T11:36:11;101012.91;;;9.51;71.49
64841;BME280;51307;52.162;7.560;2024-02-21T11:38:37;101019.31;;;9.58;70.94
64841;BME280;51307;52.162;7.560;2024-02-21T11:41:02;101003.44;;;9.57;70.68
64841;BME280;51307;52.162;7.560;2024-02-21T11:43:28;101003.44;;;9.57;70.85
64841;BME280;51307;52.162;7.560;2024-02-21T11:46:01;101000.47;;;9.60;71.04
64841;BME280;51307;52.162;7.560;2024-02-21T11:48:27;100999.72;;;9.40;71.04
64841;BME280;51307;52.162;7.560;2024-02-21T11:50:54;100994.72;;;9.27;71.14
64841;BME280;51307;52.162;7.560;2024-02-21T11:53:20;100989.50;;;9.35;71.41
64841;BME280;51307;52.162;7.560;2024-02-21T11:55:46;100977.31;;;9.51;71.81
64841;BME280;51307;52.162;7.560;2024-02-21T11:58:12;100956.25;;;9.48;71.85
64841;BME280;51307;52.162;7.560;2024-02-21T12:00:37;100954.88;;;9.43;71.72
64841;BME280;51307;52.162;7.560;2024-02-21T12:03:04;100954.97;;;9.52;72.04
64841;BME280;51307;52.162;7.560;2024-02-21T12:05:31;100948.63;;;9.53;71.65
64841;BME280;51307;52.162;7.560;2024-02-21T12:07:57;100949.63;;;9.52;71.83
64841;BME280;51307;52.162;7.560;2024-02-21T12:10:25;100938.63;;;9.55;71.32
64841;BME280;51307;52.162;7.560;2024-02-21T12:12:51;100937.16;;;9.42;71.72
64841;BME280;51307;52.162;7.560;2024-02-21T12:15:18;100925.00;;;9.30;71.52
64841;BME280;51307;52.162;7.560;2024-02-21T12:17:44;100924.88;;;9.50;71.44
64841;BME280;51307;52.162;7.560;2024-02-21T12:20:10;100922.41;;;9.38;71.66
64841;BME280;51307;52.162;7.560;2024-02-21T12:22:41;100918.47;;;9.42;71.49
64841;BME280;51307;52.162;7.560;2024-02-21T12:25:17;100905.81;;;9.45;71.16
64841;BME280;51307;52.162;7.560;2024-02-21T12:27:44;100892.38;;;9.54;71.53
64841;BME280;51307;52.162;7.560;2024-02-21T12:30:10;100883.44;;;9.46;71.77
64841;BME280;51307;52.162;7.560;2024-02-21T12:32:36;100878.88;;;9.56;72.05
64841;BME280;51307;52.162;7.560;2024-02-21T12:35:02;100866.56;;;9.63;71.67
64841;BME280;51307;52.162;7.560;2024-02-21T12:37:28;100844.38;;;9.63;71.25
64841;BME280;51307;52.162;7.560;2024-02-21T12:39:54;100830.53;;;9.67;70.93
64841;BME280;51307;52.162;7.560;2024-02-21T12:42:20;100816.28;;;9.58;70.73
64841;BME280;51307;52.162;7.560;2024-02-21T12:44:45;100815.22;;;9.69;70.74
64841;BME280;51307;52.162;7.560;2024-02-21T12:47:11;100801.47;;;9.64;70.89
64841;BME280;51307;52.162;7.560;2024-02-21T12:49:37;100803.53;;;9.70;70.82
64841;BME280;51307;52.162;7.560;2024-02-21T12:52:03;100820.09;;;9.74;70.76
64841;BME280;51307;52.162;7.560;2024-02-21T12:54:29;100811.63;;;9.79;70.56
64841;BME280;51307;52.162;7.560;2024-02-21T12:56:56;100807.09;;;9.79;70.38
64841;BME280;51307;52.162;7.560;2024-02-21T12:59:21;100779.94;;;9.84;70.02